Time;durP1;ratioP1;P1;durP2;ratioP2;P2;SDS_P1;SDS_P2;PMS_P1;PMS_P2;Temp;Humidity;BMP_temperature;BMP_pressure;BME280_temperature;BME280_humidity;BME280_pressure;Samples;Min_cycle;Max_cycle;Signal;HPM_P1;HPM_P2
2023/07/06 00:02:14;;;;;;;7.28;3.25;;;12.00;92.10;;;;;;5051975;28;20703;-46
2023/07/06 00:04:43;;;;;;;9.40;4.15;;;12.00;92.10;;;;;;5052396;28;20029;-46
2023/07/06 00:07:11;;;;;;;9.57;3.83;;;11.90;92.10;;;;;;5064325;28;20552;-46
2023/07/06 00:09:38;;;;;;;7.97;3.80;;;11.90;92.30;;;;;;5072255;28;20082;-45
2023/07/06 00:12:05;;;;;;;9.68;4.28;;;11.90;92.30;;;;;;5072329;28;20024;-46
2023/07/06 00:14:33;;;;;;;6.38;3.47;;;11.90;92.30;;;;;;5062799;28;20029;-47
2023/07/06 00:17:12;;;;;;;15.95;4.97;;;11.90;92.30;;;;;;5052067;28;20064;-45
2023/07/06 00:19:40;;;;;;;9.25;4.82;;;11.90;92.30;;;;;;5052410;28;20120;-46
2023/07/06 00:22:09;;;;;;;9.93;4.25;;;11.90;92.30;;;;;;5057534;28;20047;-46
2023/07/06 00:24:36;;;;;;;5.10;3.80;;;11.90;92.40;;;;;;5059183;28;20324;-45
2023/07/06 00:27:03;;;;;;;11.13;4.07;;;11.90;92.30;;;;;;5052324;28;20025;-45
2023/07/06 00:29:34;;;;;;;8.43;3.92;;;11.90;92.40;;;;;;5052227;28;20036;-45
2023/07/06 00:32:27;;;;;;;7.53;3.75;;;11.90;92.40;;;;;;5053479;28;20087;-46
2023/07/06 00:34:53;;;;;;;9.82;5.07;;;11.90;92.50;;;;;;5055804;28;20048;-45
2023/07/06 00:37:21;;;;;;;7.20;4.72;;;11.90;92.40;;;;;;5067435;28;20057;-45
2023/07/06 00:39:49;;;;;;;7.00;3.75;;;11.80;92.40;;;;;;5065306;28;20029;-46
2023/07/06 00:42:19;;;;;;;6.15;4.10;;;11.80;92.50;;;;;;5056000;28;20429;-46
2023/07/06 00:44:57;;;;;;;;;;;11.80;92.50;;;;;;5056349;28;20021;-45
2023/07/06 00:47:59;;;;;;;8.82;4.72;;;11.80;92.40;;;;;;5055669;28;19905;-47
2023/07/06 00:50:29;;;;;;;10.82;5.25;;;11.80;92.50;;;;;;5058227;28;20120;-45
2023/07/06 00:53:02;;;;;;;;;;;11.70;92.50;;;;;;5040884;28;20032;-45
2023/07/06 00:55:32;;;;;;;7.57;4.40;;;11.70;92.60;;;;;;5055446;28;20231;-45
2023/07/06 00:58:08;;;;;;;8.60;4.97;;;11.70;92.60;;;;;;5037807;28;20056;-46
2023/07/06 01:00:40;;;;;;;10.27;4.50;;;11.70;92.70;;;;;;5053911;28;20060;-45
2023/07/06 01:03:08;;;;;;;10.48;4.50;;;11.70;92.70;;;;;;5055476;28;20486;-45
2023/07/06 01:05:38;;;;;;;11.32;5.75;;;11.70;92.70;;;;;;5062574;28;20032;-45
2023/07/06 01:08:11;;;;;;;8.30;4.63;;;11.70;92.70;;;;;;5075196;28;20594;-45
2023/07/06 01:10:39;;;;;;;6.28;4.82;;;11.60;92.80;;;;;;5063980;28;20129;-45
2023/07/06 01:13:07;;;;;;;9.52;4.53;;;11.70;92.90;;;;;;5054068;28;20029;-45
2023/07/06 01:15:49;;;;;;;7.82;4.88;;;11.70;92.80;;;;;;5054873;28;20029;-47
2023/07/06 01:18:33;;;;;;;8.55;4.75;;;11.60;92.80;;;;;;5054789;28;20033;-46
2023/07/06 01:21:40;;;;;;;8.90;4.85;;;11.70;92.80;;;;;;5067948;28;20039;-45
2023/07/06 01:24:29;;;;;;;7.68;4.30;;;11.70;92.70;;;;;;5064190;28;20037;-45
2023/07/06 01:27:38;;;;;;;10.32;5.22;;;11.60;92.70;;;;;;5055081;28;20020;-47
2023/07/06 01:30:24;;;;;;;12.32;4.90;;;11.60;92.90;;;;;;5035071;28;20056;-46
2023/07/06 01:33:00;;;;;;;9.80;4.72;;;11.60;92.80;;;;;;5054645;28;20025;-46
2023/07/06 01:35:39;;;;;;;9.07;4.95;;;11.60;92.80;;;;;;5065395;28;20103;-47
2023/07/06 01:38:07;;;;;;;9.82;5.32;;;11.50;92.80;;;;;;5057330;28;20062;-47
2023/07/06 01:40:34;;;;;;;10.38;5.40;;;11.60;92.90;;;;;;5073157;28;20086;-46
2023/07/06 01:43:01;;;;;;;8.43;5.07;;;11.60;93.00;;;;;;5056772;28;20519;-45
2023/07/06 01:45:30;;;;;;;11.82;5.93;;;11.60;92.90;;;;;;5054251;28;20033;-45
2023/07/06 01:48:01;;;;;;;8.98;5.38;;;11.60;93.00;;;;;;5054220;28;20100;-45
2023/07/06 01:51:00;;;;;;;12.45;5.15;;;11.50;93.10;;;;;;5047009;28;20071;-46
2023/07/06 01:53:58;;;;;;;10.13;5.23;;;11.60;93.10;;;;;;5074127;28;20043;-46
2023/07/06 01:56:55;;;;;;;9.55;5.20;;;11.50;93.10;;;;;;5056686;28;20267;-45
2023/07/06 01:59:25;;;;;;;9.93;5.70;;;11.50;93.10;;;;;;5054674;28;20369;-46
2023/07/06 02:02:00;;;;;;;10.15;5.68;;;11.50;93.20;;;;;;5053039;28;20447;-46
2023/07/06 02:04:32;;;;;;;11.75;5.78;;;11.50;93.20;;;;;;5057733;28;20425;-45
2023/07/06 02:07:05;;;;;;;14.38;7.00;;;11.50;93.30;;;;;;5066406;28;20039;-45
2023/07/06 02:09:42;;;;;;;9.95;6.05;;;11.60;93.30;;;;;;5053925;28;20086;-45
2023/07/06 02:12:11;;;;;;;8.75;5.88;;;11.60;93.30;;;;;;5036326;28;20098;-46
2023/07/06 02:14:37;;;;;;;10.30;6.25;;;11.60;93.30;;;;;;5054068;28;20355;-47
2023/07/06 02:17:07;;;;;;;8.40;5.25;;;11.60;93.40;;;;;;5053235;28;20055;-46
2023/07/06 02:19:36;;;;;;;11.82;5.95;;;11.60;93.40;;;;;;5064587;28;20025;-45
2023/07/06 02:22:03;;;;;;;10.73;5.78;;;11.60;93.50;;;;;;5054282;28;20463;-45
2023/07/06 02:24:33;;;;;;;12.07;6.80;;;11.60;93.50;;;;;;5053416;28;20051;-45
2023/07/06 02:27:00;;;;;;;;;;;11.70;93.70;;;;;;5053439;28;20025;-47
2023/07/06 02:29:29;;;;;;;12.07;5.78;;;11.70;93.80;;;;;;5053000;28;19920;-46
2023/07/06 02:31:56;;;;;;;8.20;6.50;;;11.80;93.90;;;;;;5054710;28;20040;-46
2023/07/06 02:34:26;;;;;;;9.52;6.65;;;11.90;93.90;;;;;;5072814;28;20029;-45
2023/07/06 02:36:54;;;;;;;12.32;7.07;;;11.90;94.00;;;;;;5073179;28;20366;-46
2023/07/06 02:39:24;;;;;;;9.98;7.10;;;11.90;94.00;;;;;;5073055;28;20029;-46
2023/07/06 02:41:56;;;;;;;10.85;6.97;;;11.90;94.10;;;;;;5073259;28;20097;-45
2023/07/06 02:44:23;;;;;;;11.88;7.53;;;12.00;94.00;;;;;;5072260;28;20082;-46
2023/07/06 02:46:51;;;;;;;9.70;7.60;;;12.10;94.10;;;;;;5073303;28;20132;-46
2023/07/06 02:49:20;;;;;;;10.50;7.30;;;12.10;94.00;;;;;;5053035;28;20086;-47
2023/07/06 02:51:53;;;;;;;12.80;8.00;;;12.10;94.10;;;;;;5072284;28;20466;-47
2023/07/06 02:54:21;;;;;;;12.23;7.38;;;12.20;94.10;;;;;;5048540;28;20040;-47
2023/07/06 02:56:48;;;;;;;10.20;6.93;;;12.20;94.10;;;;;;5053278;28;20520;-45
2023/07/06 02:59:15;;;;;;;14.80;7.88;;;12.30;94.10;;;;;;5067172;28;20032;-45
2023/07/06 03:01:42;;;;;;;9.55;7.25;;;12.30;94.00;;;;;;5055272;28;20025;-45
2023/07/06 03:04:10;;;;;;;11.18;7.32;;;12.30;94.10;;;;;;5054214;28;20024;-46
2023/07/06 03:06:38;;;;;;;8.65;7.07;;;12.30;94.10;;;;;;5055456;28;20058;-46
2023/07/06 03:09:07;;;;;;;11.57;7.75;;;12.30;94.10;;;;;;5073351;28;20020;-45
2023/07/06 03:11:37;;;;;;;10.65;7.75;;;12.40;94.10;;;;;;5066010;28;20029;-45
2023/07/06 03:14:07;;;;;;;10.70;7.68;;;12.40;94.20;;;;;;5065546;28;20047;-45
2023/07/06 03:16:39;;;;;;;15.30;8.82;;;12.40;94.10;;;;;;5076720;28;20032;-47
2023/07/06 03:19:12;;;;;;;13.43;8.05;;;12.40;94.10;;;;;;5055704;28;20036;-46
2023/07/06 03:21:39;;;;;;;13.73;9.25;;;12.40;94.10;;;;;;5092757;28;20035;-45
2023/07/06 03:24:07;;;;;;;14.20;8.32;;;12.50;94.10;;;;;;5092985;28;20108;-47
2023/07/06 03:26:36;;;;;;;11.07;8.35;;;12.50;94.10;;;;;;5062808;28;20074;-46
2023/07/06 03:29:07;;;;;;;11.50;9.05;;;12.50;94.10;;;;;;5052900;28;20458;-45
2023/07/06 03:31:34;;;;;;;12.48;8.45;;;12.50;94.10;;;;;;5068066;28;20403;-45
2023/07/06 03:34:04;;;;;;;13.98;10.00;;;12.50;94.10;;;;;;5050978;28;20082;-45
2023/07/06 03:36:34;;;;;;;10.88;9.40;;;12.50;94.20;;;;;;5071523;28;20032;-46
2023/07/06 03:39:01;;;;;;;;;;;12.50;94.10;;;;;;5072913;28;20090;-46
2023/07/06 03:41:28;;;;;;;11.77;8.73;;;12.50;94.20;;;;;;5054415;28;19908;-46
2023/07/06 03:43:58;;;;;;;13.75;8.98;;;12.60;94.20;;;;;;5055277;28;20025;-46
2023/07/06 03:46:33;;;;;;;14.77;9.30;;;12.60;94.10;;;;;;5071315;28;20373;-46
2023/07/06 03:49:10;;;;;;;16.77;9.52;;;12.60;94.10;;;;;;5071635;28;20039;-46
2023/07/06 03:51:38;;;;;;;13.65;8.95;;;12.50;94.00;;;;;;5052727;28;20047;-45
2023/07/06 03:54:06;;;;;;;15.55;10.00;;;12.60;94.00;;;;;;5052257;28;20466;-45
2023/07/06 03:56:33;;;;;;;13.13;8.88;;;12.60;94.00;;;;;;5051904;28;20470;-45
2023/07/06 03:59:05;;;;;;;14.75;9.38;;;12.50;93.90;;;;;;5052185;28;20040;-46
2023/07/06 04:01:32;;;;;;;11.00;8.32;;;12.50;93.90;;;;;;5070642;28;20119;-46
2023/07/06 04:03:59;;;;;;;14.98;9.77;;;12.50;93.80;;;;;;5065460;28;20021;-46
2023/07/06 04:06:28;;;;;;;11.68;9.50;;;12.50;93.90;;;;;;5054612;28;20116;-47
2023/07/06 04:08:59;;;;;;;10.20;8.50;;;12.50;93.90;;;;;;5039429;28;20466;-45
2023/07/06 04:11:26;;;;;;;12.20;9.73;;;12.50;93.90;;;;;;5056510;28;20275;-47
2023/07/06 04:13:59;;;;;;;11.25;9.00;;;12.50;94.00;;;;;;5056237;28;20044;-46
2023/07/06 04:16:25;;;;;;;17.67;10.27;;;12.60;94.00;;;;;;5056503;28;20013;-46
2023/07/06 04:18:55;;;;;;;11.35;8.38;;;12.70;94.00;;;;;;5074282;28;20047;-47
2023/07/06 04:21:22;;;;;;;18.45;9.60;;;12.70;93.90;;;;;;5053741;28;20037;-46
2023/07/06 04:23:49;;;;;;;10.55;9.23;;;12.80;94.00;;;;;;5055828;28;20036;-45
2023/07/06 04:26:16;;;;;;;14.45;8.55;;;12.80;93.90;;;;;;5055729;28;20028;-45
2023/07/06 04:28:43;;;;;;;12.38;8.73;;;12.80;93.90;;;;;;5055309;28;20040;-45
2023/07/06 04:31:11;;;;;;;13.15;9.48;;;12.80;93.90;;;;;;5055422;28;20108;-45
2023/07/06 04:33:38;;;;;;;12.85;8.93;;;12.80;93.80;;;;;;5073013;28;20136;-45
2023/07/06 04:36:05;;;;;;;12.77;9.02;;;12.90;93.80;;;;;;5060458;28;20091;-46
2023/07/06 04:38:31;;;;;;;14.05;9.52;;;12.90;93.70;;;;;;5055396;28;20090;-46
2023/07/06 04:40:58;;;;;;;14.85;9.95;;;13.00;93.50;;;;;;5055866;28;20037;-47
2023/07/06 04:43:27;;;;;;;14.45;9.68;;;13.00;93.50;;;;;;5055142;28;20029;-46
2023/07/06 04:45:58;;;;;;;10.57;8.77;;;13.10;93.60;;;;;;5055048;28;20116;-46
2023/07/06 04:48:26;;;;;;;16.65;9.75;;;13.00;93.30;;;;;;5073948;28;20430;-46
2023/07/06 04:50:54;;;;;;;13.95;8.95;;;13.10;93.40;;;;;;5075508;28;20438;-46
2023/07/06 04:53:22;;;;;;;10.68;9.57;;;13.10;93.20;;;;;;5053515;28;20029;-46
2023/07/06 04:55:50;;;;;;;14.27;8.90;;;13.10;93.00;;;;;;5055592;28;20047;-45
2023/07/06 04:58:18;;;;;;;12.05;8.85;;;13.10;93.00;;;;;;5055881;28;20044;-46
2023/07/06 05:00:45;;;;;;;14.57;8.30;;;13.10;93.00;;;;;;5055877;28;20040;-45
2023/07/06 05:03:12;;;;;;;10.55;8.32;;;13.10;93.10;;;;;;5050246;28;20024;-45
2023/07/06 05:05:43;;;;;;;11.48;8.10;;;13.20;93.10;;;;;;5075391;28;20100;-45
2023/07/06 05:08:15;;;;;;;11.45;8.48;;;13.20;92.90;;;;;;5073944;28;20020;-45
2023/07/06 05:10:46;;;;;;;11.23;7.75;;;13.30;93.00;;;;;;5055210;28;20033;-45
2023/07/06 05:13:14;;;;;;;10.68;8.32;;;13.30;92.90;;;;;;5061879;28;20020;-47
2023/07/06 05:15:41;;;;;;;11.93;8.45;;;13.40;92.80;;;;;;5061897;28;20048;-45
2023/07/06 05:18:08;;;;;;;10.75;8.10;;;13.40;92.90;;;;;;5071964;28;20350;-46
2023/07/06 05:20:35;;;;;;;13.98;8.77;;;13.40;92.90;;;;;;5074999;28;20048;-45
2023/07/06 05:23:03;;;;;;;9.18;7.60;;;13.40;92.90;;;;;;5070208;28;20017;-46
2023/07/06 05:25:30;;;;;;;11.73;8.70;;;13.40;92.90;;;;;;5054815;28;20029;-45
2023/07/06 05:27:57;;;;;;;11.93;9.02;;;13.40;92.90;;;;;;5058943;28;20096;-44
2023/07/06 05:30:24;;;;;;;11.18;7.88;;;13.50;92.80;;;;;;5061058;28;20037;-45
2023/07/06 05:32:51;;;;;;;12.38;8.32;;;13.50;92.90;;;;;;5073998;28;20024;-47
2023/07/06 05:35:19;;;;;;;13.85;8.68;;;13.50;92.90;;;;;;5074554;28;20024;-46
2023/07/06 05:37:46;;;;;;;11.75;8.82;;;13.50;93.00;;;;;;5060455;28;20520;-45
2023/07/06 05:40:12;;;;;;;13.73;8.48;;;13.50;93.00;;;;;;5054574;28;20103;-46
2023/07/06 05:42:39;;;;;;;12.25;7.63;;;13.60;93.10;;;;;;5053462;28;20029;-45
2023/07/06 05:45:08;;;;;;;10.45;7.80;;;13.60;93.10;;;;;;5039964;28;20028;-45
2023/07/06 05:47:36;;;;;;;12.15;8.18;;;13.70;93.10;;;;;;5074397;28;20024;-45
2023/07/06 05:50:03;;;;;;;12.38;7.53;;;13.70;93.00;;;;;;5074245;28;20027;-45
2023/07/06 05:52:30;;;;;;;13.10;8.00;;;13.80;93.10;;;;;;5052574;28;20451;-45
2023/07/06 05:54:57;;;;;;;13.30;8.95;;;13.90;93.10;;;;;;5053207;28;20509;-45
2023/07/06 05:57:24;;;;;;;9.55;7.28;;;14.00;93.00;;;;;;5065112;28;20028;-45
2023/07/06 05:59:51;;;;;;;7.95;6.38;;;14.30;93.00;;;;;;5073362;28;20031;-44
2023/07/06 06:02:20;;;;;;;7.10;6.28;;;14.40;92.80;;;;;;5057774;28;20480;-45
2023/07/06 06:04:51;;;;;;;10.15;6.55;;;14.60;92.20;;;;;;5066315;28;20021;-46
2023/07/06 06:07:19;;;;;;;11.95;6.22;;;14.70;91.80;;;;;;5054207;28;20037;-46
2023/07/06 06:09:47;;;;;;;8.52;5.97;;;14.90;91.30;;;;;;5054183;28;20090;-46
2023/07/06 06:12:18;;;;;;;10.40;6.38;;;15.00;91.10;;;;;;5036282;28;20033;-44
2023/07/06 06:14:47;;;;;;;9.13;4.63;;;15.10;90.10;;;;;;5064425;28;20071;-43
2023/07/06 06:17:14;;;;;;;8.25;5.00;;;15.20;89.40;;;;;;5072960;28;20048;-47
2023/07/06 06:19:42;;;;;;;11.43;4.13;;;15.40;88.70;;;;;;5068812;28;20059;-45
2023/07/06 06:22:11;;;;;;;7.05;4.78;;;15.40;88.00;;;;;;5073772;28;20024;-44
2023/07/06 06:24:38;;;;;;;6.93;4.03;;;15.50;87.40;;;;;;5073755;28;20029;-44
2023/07/06 06:27:06;;;;;;;6.20;4.03;;;15.70;86.50;;;;;;5068627;28;20041;-44
2023/07/06 06:29:34;;;;;;;7.13;4.43;;;15.70;86.60;;;;;;5054036;28;20025;-45
2023/07/06 06:32:03;;;;;;;8.85;4.13;;;15.70;86.20;;;;;;5074828;28;20025;-45
2023/07/06 06:34:30;;;;;;;8.77;4.65;;;15.80;86.00;;;;;;5069958;28;20025;-45
2023/07/06 06:36:57;;;;;;;9.25;4.07;;;15.80;86.30;;;;;;5053657;28;20043;-44
2023/07/06 06:39:24;;;;;;;8.80;4.15;;;15.80;86.70;;;;;;5055403;28;20648;-45
2023/07/06 06:41:52;;;;;;;7.85;4.57;;;15.90;86.70;;;;;;5073102;28;20025;-44
2023/07/06 06:44:19;;;;;;;7.80;4.82;;;15.90;86.90;;;;;;5054176;28;20370;-44
2023/07/06 06:46:47;;;;;;;6.78;3.67;;;15.90;86.30;;;;;;5071167;28;20099;-45
2023/07/06 06:49:14;;;;;;;5.43;3.22;;;16.00;85.80;;;;;;5073105;28;20020;-45
2023/07/06 06:51:44;;;;;;;10.27;4.97;;;16.10;86.10;;;;;;5051077;28;20078;-45
2023/07/06 06:54:11;;;;;;;5.80;3.33;;;16.20;85.20;;;;;;5053022;28;20504;-46
2023/07/06 06:56:37;;;;;;;4.78;3.20;;;16.30;85.60;;;;;;5066810;28;20044;-45
2023/07/06 06:59:04;;;;;;;8.32;4.07;;;16.40;84.70;;;;;;5072895;28;20390;-45
2023/07/06 07:01:31;;;;;;;7.15;3.38;;;16.50;84.50;;;;;;5052059;28;20028;-45
2023/07/06 07:04:00;;;;;;;5.78;3.45;;;16.60;84.00;;;;;;5070512;28;20021;-45
2023/07/06 07:06:28;;;;;;;8.95;3.72;;;16.60;83.80;;;;;;5054350;28;20020;-45
2023/07/06 07:08:57;;;;;;;5.78;3.38;;;16.60;83.40;;;;;;5072328;28;20054;-46
2023/07/06 07:11:24;;;;;;;7.38;3.17;;;16.70;83.10;;;;;;5070276;28;20031;-46
2023/07/06 07:13:52;;;;;;;10.43;3.55;;;16.80;82.60;;;;;;5053019;28;20082;-45
2023/07/06 07:16:19;;;;;;;6.72;3.10;;;16.90;83.40;;;;;;5044441;28;20040;-46
2023/07/06 07:18:45;;;;;;;7.97;3.03;;;16.90;81.70;;;;;;5061421;28;20037;-46
2023/07/06 07:21:14;;;;;;;5.82;2.75;;;17.10;81.50;;;;;;5035194;28;20382;-49
2023/07/06 07:23:48;;;;;;;6.18;3.15;;;17.40;81.90;;;;;;5052594;28;20024;-45
2023/07/06 07:26:17;;;;;;;13.63;3.63;;;17.60;80.30;;;;;;5052972;28;20438;-47
2023/07/06 07:28:44;;;;;;;5.25;2.58;;;17.80;78.50;;;;;;5052669;28;20040;-47
2023/07/06 07:31:11;;;;;;;5.72;2.85;;;18.20;78.30;;;;;;5063932;28;20082;-47
2023/07/06 07:33:44;;;;;;;4.90;2.92;;;18.40;77.30;;;;;;5053768;28;20029;-47
2023/07/06 07:36:14;;;;;;;5.03;2.70;;;18.40;76.20;;;;;;5051920;28;20044;-49
2023/07/06 07:38:44;;;;;;;5.10;2.28;;;18.90;75.40;;;;;;5052659;28;20413;-48
2023/07/06 07:41:13;;;;;;;6.15;2.20;;;19.20;74.00;;;;;;5054273;28;20032;-46
2023/07/06 07:43:41;;;;;;;5.22;2.78;;;19.30;73.10;;;;;;5056612;28;20025;-47
2023/07/06 07:46:11;;;;;;;5.82;2.28;;;19.70;71.60;;;;;;5069212;28;20039;-47
2023/07/06 07:48:44;;;;;;;5.63;2.58;;;19.80;69.40;;;;;;5059039;28;20025;-49
2023/07/06 07:51:14;;;;;;;5.78;2.30;;;20.10;69.70;;;;;;5054374;28;20033;-50
2023/07/06 07:53:44;;;;;;;;;;;20.40;69.00;;;;;;5039176;28;20035;-47
2023/07/06 07:56:12;;;;;;;;;;;20.50;68.70;;;;;;5060466;28;19913;-47
2023/07/06 07:58:40;;;;;;;4.60;1.77;;;20.50;66.60;;;;;;5058775;28;20229;-47
2023/07/06 08:01:10;;;;;;;3.78;1.90;;;20.60;67.10;;;;;;5075544;28;20786;-47
2023/07/06 08:03:37;;;;;;;7.07;2.20;;;21.10;67.60;;;;;;5058901;28;20032;-47
2023/07/06 08:06:07;;;;;;;6.18;2.05;;;21.20;68.10;;;;;;5076269;28;20335;-49
2023/07/06 08:08:34;;;;;;;;;;;21.00;67.30;;;;;;5070427;28;20036;-48
2023/07/06 08:11:08;;;;;;;3.13;1.63;;;20.90;64.40;;;;;;5057526;28;19909;-48
2023/07/06 08:13:36;;;;;;;3.47;1.52;;;20.90;62.60;;;;;;5074833;28;20032;-47
2023/07/06 08:16:04;;;;;;;3.45;1.45;;;20.50;64.10;;;;;;5075120;28;20028;-48
2023/07/06 08:18:36;;;;;;;4.60;2.00;;;20.60;63.20;;;;;;5075341;28;20062;-47
2023/07/06 08:21:03;;;;;;;3.95;1.73;;;20.60;63.10;;;;;;5075816;28;20032;-47
2023/07/06 08:23:31;;;;;;;6.13;2.30;;;20.90;65.50;;;;;;5060289;28;20040;-47
2023/07/06 08:25:58;;;;;;;8.75;2.78;;;21.00;62.00;;;;;;5055915;28;20502;-47
2023/07/06 08:28:31;;;;;;;5.13;1.90;;;20.80;64.70;;;;;;5057134;28;20378;-48
2023/07/06 08:31:03;;;;;;;4.35;2.30;;;20.90;66.80;;;;;;5074854;28;20081;-47
2023/07/06 08:33:37;;;;;;;4.63;2.15;;;21.00;67.40;;;;;;5075851;28;20037;-47
2023/07/06 08:36:07;;;;;;;3.33;1.70;;;21.00;65.60;;;;;;5054099;28;20087;-50
2023/07/06 08:38:37;;;;;;;5.60;2.25;;;21.40;63.10;;;;;;5055483;28;20047;-48
2023/07/06 08:41:17;;;;;;;5.95;2.47;;;21.10;62.70;;;;;;5055434;28;20025;-47
2023/07/06 08:43:45;;;;;;;;;;;20.90;64.50;;;;;;5041071;28;20033;-47
2023/07/06 08:46:13;;;;;;;3.72;1.80;;;20.60;66.60;;;;;;5075783;28;19919;-47
2023/07/06 08:48:41;;;;;;;3.45;1.73;;;20.70;64.10;;;;;;5075847;28;20107;-48
2023/07/06 08:51:24;;;;;;;5.15;2.15;;;20.60;63.30;;;;;;5075688;28;20020;-47
2023/07/06 08:54:36;;;;;;;3.22;1.38;;;20.50;63.90;;;;;;5056622;28;20515;-48
2023/07/06 08:57:16;;;;;;;4.25;1.80;;;20.60;64.30;;;;;;5052881;28;20041;-49
2023/07/06 08:59:45;;;;;;;4.65;1.80;;;20.60;64.70;;;;;;5075179;28;20112;-48
2023/07/06 09:02:13;;;;;;;4.75;1.70;;;20.40;66.00;;;;;;5069232;28;20021;-51
2023/07/06 09:04:40;;;;;;;7.28;2.30;;;20.30;62.60;;;;;;5073759;28;20078;-47
2023/07/06 09:07:12;;;;;;;5.75;1.95;;;19.90;65.00;;;;;;5075061;28;20036;-47
2023/07/06 09:09:44;;;;;;;6.63;2.45;;;19.50;66.30;;;;;;5070911;28;20036;-47
2023/07/06 09:12:22;;;;;;;4.45;1.92;;;19.10;67.50;;;;;;5056543;28;20043;-48
2023/07/06 09:14:53;;;;;;;3.75;1.80;;;19.20;68.70;;;;;;5058098;28;20029;-47
2023/07/06 09:17:20;;;;;;;5.40;1.83;;;18.90;68.50;;;;;;5054837;28;20045;-49
2023/07/06 09:19:50;;;;;;;4.72;2.17;;;18.90;69.30;;;;;;5055834;28;20033;-47
2023/07/06 09:22:18;;;;;;;7.50;2.15;;;18.90;69.10;;;;;;5074519;28;20034;-47
2023/07/06 09:24:45;;;;;;;5.40;2.10;;;19.90;71.80;;;;;;5067668;28;20029;-47
2023/07/06 09:27:30;;;;;;;9.43;3.25;;;20.40;67.20;;;;;;5063509;28;20024;-47
2023/07/06 09:30:05;;;;;;;7.75;2.28;;;20.60;65.60;;;;;;5056583;28;20043;-48
2023/07/06 09:32:32;;;;;;;4.43;2.25;;;20.70;63.50;;;;;;5072641;28;20369;-47
2023/07/06 09:35:10;;;;;;;5.00;2.42;;;20.60;65.00;;;;;;5073804;28;20028;-50
2023/07/06 09:37:48;;;;;;;8.65;3.38;;;20.60;64.80;;;;;;5074174;28;20116;-47
2023/07/06 09:40:15;;;;;;;6.07;2.35;;;20.50;64.30;;;;;;5071856;28;20024;-47
2023/07/06 09:42:44;;;;;;;8.27;2.20;;;20.30;66.40;;;;;;5065940;28;20043;-47
2023/07/06 09:45:25;;;;;;;5.07;2.13;;;20.20;67.80;;;;;;5062274;28;20094;-47
2023/07/06 09:48:07;;;;;;;5.03;2.00;;;20.60;66.10;;;;;;5054501;28;20021;-47
2023/07/06 09:50:48;;;;;;;7.25;2.03;;;21.00;66.90;;;;;;5062956;28;20024;-48
2023/07/06 09:53:33;;;;;;;4.03;2.35;;;21.40;64.00;;;;;;5054723;28;20025;-48
2023/07/06 09:56:03;;;;;;;4.72;2.38;;;22.00;65.20;;;;;;5054267;28;20056;-48
2023/07/06 09:58:34;;;;;;;5.22;2.47;;;21.90;61.10;;;;;;5069207;28;20031;-49
2023/07/06 10:01:18;;;;;;;4.35;1.95;;;21.80;62.30;;;;;;5053874;28;20025;-47
2023/07/06 10:04:22;;;;;;;5.70;1.80;;;21.30;63.40;;;;;;5053282;28;20450;-48
2023/07/06 10:07:06;;;;;;;3.80;1.77;;;21.10;64.60;;;;;;5060576;28;20044;-49
2023/07/06 10:09:54;;;;;;;7.07;2.65;;;20.90;63.90;;;;;;5053974;28;20056;-48
2023/07/06 10:13:00;;;;;;;4.05;2.50;;;20.70;65.60;;;;;;5058285;28;20057;-47
2023/07/06 10:15:57;;;;;;;5.43;2.05;;;20.20;65.70;;;;;;4996550;28;20033;-47
2023/07/06 10:18:30;;;;;;;5.45;2.45;;;20.30;67.20;;;;;;4998554;28;20460;-51
2023/07/06 10:21:22;;;;;;;6.05;1.85;;;20.40;65.60;;;;;;4992619;28;20080;-51
2023/07/06 10:24:30;;;;;;;7.22;2.78;;;21.00;66.60;;;;;;4998770;28;20034;-49
2023/07/06 10:27:00;;;;;;;5.90;2.47;;;21.10;64.90;;;;;;4976665;28;20125;-48
2023/07/06 10:29:41;;;;;;;6.85;3.38;;;21.10;64.50;;;;;;4993338;28;20030;-48
2023/07/06 10:32:16;;;;;;;7.07;2.38;;;21.50;67.40;;;;;;5011753;28;20059;-50
2023/07/06 10:35:00;;;;;;;11.52;2.78;;;21.40;62.40;;;;;;4995010;28;20070;-52
2023/07/06 10:37:27;;;;;;;4.47;2.00;;;21.00;60.20;;;;;;5011818;28;20071;-50
2023/07/06 10:40:04;;;;;;;5.53;2.17;;;20.90;62.00;;;;;;5011210;28;20045;-48
2023/07/06 10:42:35;;;;;;;4.20;1.70;;;20.60;61.70;;;;;;4999256;28;20787;-52
2023/07/06 10:45:02;;;;;;;3.80;1.83;;;20.40;63.30;;;;;;4992066;28;20034;-49
2023/07/06 10:47:48;;;;;;;3.92;1.60;;;20.00;64.60;;;;;;5010142;28;20034;-48
2023/07/06 10:50:41;;;;;;;6.10;1.88;;;20.40;66.40;;;;;;5013789;28;20053;-48
2023/07/06 10:53:50;;;;;;;4.10;1.65;;;21.10;64.00;;;;;;5057624;28;20064;-50
2023/07/06 10:56:20;;;;;;;4.88;2.17;;;21.80;63.10;;;;;;5047357;28;20035;-48
2023/07/06 10:59:12;;;;;;;6.40;2.08;;;21.80;60.40;;;;;;5073282;28;20032;-49
2023/07/06 11:01:40;;;;;;;3.75;1.60;;;21.80;60.20;;;;;;5068811;28;20021;-48
2023/07/06 11:04:41;;;;;;;5.57;1.92;;;21.60;58.90;;;;;;5053285;28;20044;-48
2023/07/06 11:07:38;;;;;;;5.90;2.20;;;21.40;59.50;;;;;;5052912;28;20028;-48
2023/07/06 11:10:36;;;;;;;6.63;2.10;;;21.40;60.30;;;;;;5031826;28;20458;-50
2023/07/06 11:13:05;;;;;;;6.40;1.50;;;21.50;61.50;;;;;;5068004;28;20025;-48
2023/07/06 11:15:51;;;;;;;3.92;2.22;;;21.80;60.70;;;;;;5052149;28;20108;-50
2023/07/06 11:18:29;;;;;;;6.50;1.90;;;22.40;59.60;;;;;;5052572;28;20088;-52
2023/07/06 11:21:24;;;;;;;3.95;1.70;;;22.80;59.40;;;;;;5052635;28;20040;-51
2023/07/06 11:24:02;;;;;;;4.35;1.73;;;23.10;56.30;;;;;;5059946;28;20453;-49
2023/07/06 11:26:57;;;;;;;4.57;1.98;;;23.40;55.90;;;;;;5056742;28;20045;-49
2023/07/06 11:29:30;;;;;;;4.68;1.52;;;23.50;54.30;;;;;;5068509;28;20517;-50
2023/07/06 11:32:10;;;;;;;3.22;1.55;;;23.50;53.50;;;;;;5069283;28;20311;-49
2023/07/06 11:35:10;;;;;;;3.38;1.45;;;23.60;54.40;;;;;;5070266;28;20097;-50
2023/07/06 11:38:13;;;;;;;3.35;1.80;;;23.50;55.50;;;;;;5053083;28;20029;-51
2023/07/06 11:41:05;;;;;;;4.65;1.73;;;23.20;54.90;;;;;;5062816;28;20104;-49
2023/07/06 11:43:50;;;;;;;2.22;1.13;;;22.40;55.90;;;;;;5052501;28;20116;-49
2023/07/06 11:46:47;;;;;;;3.45;1.10;;;21.70;56.90;;;;;;5052273;28;20462;-50
2023/07/06 11:49:20;;;;;;;4.63;1.45;;;21.10;58.30;;;;;;5066957;28;20082;-49
2023/07/06 11:51:49;;;;;;;5.55;1.45;;;21.20;58.10;;;;;;5052314;28;20040;-49
2023/07/06 11:57:24;;;;;;;5.35;1.75;;;21.20;57.60;;;;;;5052624;28;20048;-48
2023/07/06 12:00:15;;;;;;;;;;;21.70;57.50;;;;;;5065435;28;20029;-49
2023/07/06 12:02:43;;;;;;;5.30;2.38;;;22.30;57.00;;;;;;5072579;28;20325;-49
2023/07/06 12:05:33;;;;;;;2.65;1.30;;;22.20;57.00;;;;;;5060356;28;20359;-50
2023/07/06 12:08:10;;;;;;;4.18;1.33;;;21.80;57.10;;;;;;5052401;28;20033;-50
2023/07/06 12:10:39;;;;;;;3.15;1.15;;;21.60;56.20;;;;;;5050941;28;20085;-48
2023/07/06 12:13:22;;;;;;;4.05;1.33;;;21.80;59.30;;;;;;5061809;28;20155;-52
2023/07/06 12:15:51;;;;;;;4.78;1.23;;;22.10;56.70;;;;;;5051610;28;20039;-53
2023/07/06 12:18:20;;;;;;;4.57;1.27;;;22.00;53.30;;;;;;5051360;28;20156;-49
2023/07/06 12:20:56;;;;;;;6.63;1.50;;;21.70;54.80;;;;;;5018686;28;20047;-49
2023/07/06 12:23:23;;;;;;;1.98;1.00;;;21.50;55.20;;;;;;5034389;28;20021;-51
2023/07/06 12:25:55;;;;;;;2.33;1.00;;;21.40;56.20;;;;;;5072250;28;20020;-48
2023/07/06 12:28:31;;;;;;;5.28;1.13;;;21.40;58.60;;;;;;5070735;28;20092;-49
2023/07/06 12:31:05;;;;;;;2.83;1.50;;;21.20;58.30;;;;;;5060115;28;20037;-50
2023/07/06 12:33:35;;;;;;;3.47;1.35;;;21.60;59.50;;;;;;5054745;28;20028;-50
2023/07/06 12:36:03;;;;;;;2.22;1.00;;;21.80;57.30;;;;;;5075990;28;20310;-51
2023/07/06 12:38:35;;;;;;;2.17;0.88;;;21.60;55.60;;;;;;5059306;28;20061;-50
2023/07/06 12:41:13;;;;;;;5.03;1.00;;;21.20;55.70;;;;;;5075486;28;20380;-48
2023/07/06 12:43:39;;;;;;;3.20;1.30;;;20.80;57.10;;;;;;5064029;28;20096;-49
2023/07/06 12:46:09;;;;;;;3.42;1.70;;;20.90;59.20;;;;;;5055731;28;20021;-50
2023/07/06 12:48:42;;;;;;;2.85;1.35;;;21.00;60.00;;;;;;5038443;28;20020;-49
2023/07/06 12:51:14;;;;;;;2.80;0.85;;;21.30;57.90;;;;;;5060103;28;20044;-55
2023/07/06 12:53:41;;;;;;;4.18;1.05;;;21.60;58.30;;;;;;5055662;28;20477;-49
2023/07/06 12:56:15;;;;;;;3.72;1.00;;;21.40;55.90;;;;;;5056493;28;20032;-51
2023/07/06 12:59:05;;;;;;;3.53;1.40;;;20.90;56.50;;;;;;5067095;28;20025;-50
2023/07/06 13:01:45;;;;;;;1.92;1.08;;;20.60;58.20;;;;;;5054345;28;20056;-51
2023/07/06 13:04:13;;;;;;;3.40;0.98;;;20.60;58.50;;;;;;5055138;28;20104;-51
2023/07/06 13:06:57;;;;;;;3.28;1.15;;;20.80;59.30;;;;;;5062598;28;20527;-48
2023/07/06 13:09:32;;;;;;;2.35;1.02;;;20.90;57.80;;;;;;5072972;28;20024;-49
2023/07/06 13:12:09;;;;;;;6.43;1.10;;;21.00;57.10;;;;;;5075696;28;20042;-48
2023/07/06 13:14:40;;;;;;;3.17;1.10;;;21.00;56.40;;;;;;5075061;28;20024;-48
2023/07/06 13:17:15;;;;;;;3.58;0.88;;;21.20;57.10;;;;;;5060715;28;20131;-49
2023/07/06 13:19:44;;;;;;;3.40;0.80;;;21.50;55.50;;;;;;5055431;28;20052;-49